Terminal Aerodrome Forecast
Issued by NWS

Home | Current Version | Previous Version | Text Only | Print | Product List | Glossary On
Versions: 1 2 3 4 5 6 7 8 9 10 11 12 13 14
873
FTUS43 KBIS 242323
TAFDIK
TAF
KDIK 242323Z 2500/2524 26010KT P6SM SKC
     FM250300 27011G19KT P6SM SCT040 BKN080
      TEMPO 2506/2509 BKN020
     FM251300 27012KT P6SM SCT250
     FM251700 26014G22KT P6SM FEW250=

USA.gov is the U.S. government's official web portal to all federal, state and local government web resources and services.